createdAt,value
2023-03-26T00:04:26.127Z,99097.76
2023-03-26T00:09:33.012Z,99097.91
2023-03-26T00:14:40.964Z,99100.86
2023-03-26T00:19:47.844Z,99095.96
2023-03-26T00:24:56.958Z,99093.16
2023-03-26T00:30:05.190Z,99092.72
2023-03-26T00:35:14.084Z,99086.49
2023-03-26T00:40:21.517Z,99083.02
2023-03-26T00:45:28.563Z,99076.16
2023-03-26T00:50:35.635Z,99069.94
2023-03-26T00:55:43.043Z,99073.88
2023-03-26T01:00:52.441Z,99071.60
2023-03-26T01:06:04.722Z,99074.77
2023-03-26T01:11:15.389Z,99073.51
2023-03-26T01:16:27.723Z,99069.82
2023-03-26T01:21:35.383Z,99069.07
2023-03-26T01:27:04.397Z,99067.77
2023-03-26T01:32:23.050Z,99070.52
2023-03-26T01:37:38.676Z,99073.64
2023-03-26T01:42:55.409Z,99073.43
2023-03-26T01:48:02.925Z,99076.41
2023-03-26T01:53:12.654Z,99068.39
2023-03-26T01:58:26.588Z,99070.51
2023-03-26T02:03:38.650Z,99071.21
2023-03-26T02:08:52.885Z,99066.45
2023-03-26T02:14:00.777Z,99069.59
2023-03-26T02:19:15.643Z,99067.20
2023-03-26T02:24:25.570Z,99064.11
2023-03-26T02:29:37.750Z,99061.40
2023-03-26T02:34:45.347Z,99060.93
2023-03-26T02:39:52.818Z,99057.14
2023-03-26T02:45:09.646Z,99057.68
2023-03-26T02:50:36.998Z,99057.16
2023-03-26T02:56:11.040Z,99062.83
2023-03-26T03:01:23.518Z,99058.69
2023-03-26T03:06:33.259Z,99064.52
2023-03-26T03:11:41.568Z,99063.25
2023-03-26T03:16:48.876Z,99065.73
2023-03-26T03:21:55.750Z,99073.36
2023-03-26T03:27:02.714Z,99073.46
2023-03-26T03:32:14.662Z,99080.20
2023-03-26T03:37:27.055Z,99076.98
2023-03-26T03:42:35.145Z,99082.41
2023-03-26T03:47:43.560Z,99081.36
2023-03-26T03:52:51.434Z,99074.27
2023-03-26T03:57:58.608Z,99078.27
2023-03-26T04:03:06.740Z,99089.48
2023-03-26T04:08:14.600Z,99087.35
2023-03-26T04:13:28.113Z,99087.39
2023-03-26T04:18:36.766Z,99082.23
2023-03-26T04:23:49.470Z,99094.55
2023-03-26T04:29:17.178Z,99092.30
2023-03-26T04:34:26.376Z,99093.70
2023-03-26T04:39:45.054Z,99088.73
2023-03-26T04:45:23.169Z,99082.13
2023-03-26T04:50:35.851Z,99082.08
2023-03-26T04:55:48.998Z,99087.23
2023-03-26T05:01:10.429Z,99092.55
2023-03-26T05:06:21.903Z,99090.67
2023-03-26T05:11:29.591Z,99093.11
2023-03-26T05:16:37.604Z,99092.80
2023-03-26T05:21:50.815Z,99098.04
2023-03-26T05:26:57.826Z,99097.38
2023-03-26T05:32:05.740Z,99099.14
2023-03-26T05:37:13.894Z,99097.14
2023-03-26T05:42:41.298Z,99096.70
2023-03-26T05:48:17.530Z,99094.16
2023-03-26T05:53:25.595Z,99090.90
2023-03-26T05:58:52.155Z,99092.23
2023-03-26T06:04:18.178Z,99097.42
2023-03-26T06:09:53.519Z,99096.10
2023-03-26T06:15:00.887Z,99099.23
2023-03-26T06:20:28.330Z,99102.34
2023-03-26T06:25:35.884Z,99104.89
2023-03-26T06:31:15.039Z,99107.11
2023-03-26T06:36:52.729Z,99117.49
2023-03-26T06:42:01.121Z,99117.39
2023-03-26T06:47:25.538Z,99115.48
2023-03-26T06:52:58.607Z,99113.70
2023-03-26T06:58:25.845Z,99111.98
2023-03-26T07:03:51.551Z,99114.32
2023-03-26T07:09:33.237Z,99116.78
2023-03-26T07:15:00.822Z,99122.69
2023-03-26T07:20:40.572Z,99124.74
2023-03-26T07:25:49.836Z,99128.25
2023-03-26T07:31:27.291Z,99125.34
2023-03-26T07:36:58.595Z,99121.55
2023-03-26T07:42:37.592Z,99124.18
2023-03-26T07:48:19.021Z,99123.27
2023-03-26T07:53:46.893Z,99130.17
2023-03-26T07:59:26.216Z,99120.37
2023-03-26T08:04:57.329Z,99117.88
2023-03-26T08:10:38.381Z,99113.39
2023-03-26T08:15:54.545Z,99113.66
2023-03-26T08:21:06.304Z,99114.77
2023-03-26T08:26:20.347Z,99105.15
2023-03-26T08:31:34.074Z,99100.86
2023-03-26T08:36:41.285Z,99094.11
2023-03-26T08:42:23.097Z,99082.42
2023-03-26T08:47:46.959Z,99082.48
2023-03-26T08:53:26.671Z,99082.42
2023-03-26T08:59:08.724Z,99087.90
2023-03-26T09:04:36.455Z,99091.41
2023-03-26T09:10:07.108Z,99099.55
2023-03-26T09:15:29.693Z,99099.01
2023-03-26T09:21:07.200Z,99101.31
2023-03-26T09:26:28.071Z,99096.81
2023-03-26T09:32:32.213Z,99100.96
2023-03-26T09:37:58.624Z,99122.48
2023-03-26T09:43:33.503Z,99099.80
2023-03-26T09:48:57.643Z,99087.31
2023-03-26T09:54:21.941Z,99088.15
2023-03-26T10:00:10.956Z,99083.04
2023-03-26T10:05:41.441Z,99083.02
2023-03-26T10:10:56.570Z,99082.02
2023-03-26T10:16:14.005Z,99078.69
2023-03-26T10:21:31.421Z,99079.57
2023-03-26T10:27:09.348Z,99082.28
2023-03-26T10:32:32.142Z,99082.20
2023-03-26T10:37:54.450Z,99072.91
2023-03-26T10:43:24.210Z,99060.86
2023-03-26T10:48:45.471Z,99052.42
2023-03-26T10:53:59.935Z,99045.40
2023-03-26T10:59:13.130Z,99049.84
2023-03-26T11:04:31.585Z,99063.38
2023-03-26T11:09:44.944Z,99075.17
2023-03-26T11:14:59.580Z,99061.66
2023-03-26T11:20:12.979Z,99055.09
2023-03-26T11:25:37.054Z,99050.61
2023-03-26T11:30:49.713Z,99042.84
2023-03-26T11:36:02.485Z,99041.70
2023-03-26T11:41:16.244Z,99037.72
2023-03-26T11:46:44.932Z,99040.30
2023-03-26T11:51:53.483Z,99034.88
2023-03-26T11:57:05.568Z,99027.70
2023-03-26T12:02:29.678Z,99024.42
2023-03-26T12:07:37.880Z,99018.23
2023-03-26T12:12:47.237Z,99009.61
2023-03-26T12:17:58.206Z,99010.51
2023-03-26T12:23:08.308Z,99003.39
2023-03-26T12:28:21.576Z,98999.80
2023-03-26T12:33:34.287Z,98997.06
2023-03-26T12:38:42.566Z,98988.95
2023-03-26T12:44:49.205Z,98975.66
2023-03-26T12:49:18.962Z,98973.71
2023-03-26T12:54:42.569Z,98971.51
2023-03-26T13:00:14.087Z,98961.09
2023-03-26T13:05:43.227Z,98954.57
2023-03-26T13:10:56.411Z,98946.14
2023-03-26T13:16:10.101Z,98940.20
2023-03-26T13:21:28.652Z,98933.27
2023-03-26T13:26:49.949Z,98925.23
2023-03-26T13:32:00.908Z,98926.91
2023-03-26T13:37:16.098Z,98919.45
2023-03-26T13:42:37.737Z,98915.81
2023-03-26T13:47:50.601Z,98915.94
2023-03-26T13:53:00.562Z,98911.50
2023-03-26T13:58:17.976Z,98904.27
2023-03-26T14:03:31.911Z,98911.93
2023-03-26T14:08:44.597Z,98909.20
2023-03-26T14:13:57.976Z,98906.58
2023-03-26T14:19:32.158Z,98906.49
2023-03-26T14:24:59.185Z,98900.40
2023-03-26T14:30:30.065Z,98894.36
2023-03-26T14:35:42.664Z,98890.10
2023-03-26T14:41:03.253Z,98885.30
2023-03-26T14:46:29.339Z,98879.67
2023-03-26T14:51:59.610Z,98877.54
2023-03-26T14:57:33.607Z,98874.20
2023-03-26T15:03:22.268Z,98872.65
2023-03-26T15:09:09.094Z,98868.31
2023-03-26T15:14:43.717Z,98873.43
2023-03-26T15:20:20.803Z,98874.67
2023-03-26T15:25:53.100Z,98877.27
2023-03-26T15:31:18.832Z,98875.04
2023-03-26T15:37:12.043Z,98871.04
2023-03-26T15:42:29.730Z,98863.55
2023-03-26T15:47:49.880Z,98860.34
2023-03-26T15:53:06.777Z,98856.06
2023-03-26T15:58:22.786Z,98855.52
2023-03-26T16:03:41.201Z,98860.52
2023-03-26T16:09:00.704Z,98873.13
2023-03-26T16:14:18.055Z,98883.23
2023-03-26T16:19:53.340Z,98879.21
2023-03-26T16:25:36.780Z,98868.86
2023-03-26T16:30:46.248Z,98866.77
2023-03-26T16:36:18.500Z,98866.27
2023-03-26T16:41:30.550Z,98843.04
2023-03-26T16:46:44.709Z,98841.94
2023-03-26T16:52:09.619Z,98843.59
2023-03-26T16:57:30.642Z,98847.52
2023-03-26T17:02:51.387Z,98844.15
2023-03-26T17:08:06.808Z,98844.29
2023-03-26T17:13:23.367Z,98841.43
2023-03-26T17:18:42.656Z,98833.98
2023-03-26T17:24:07.041Z,98834.20
2023-03-26T17:29:53.130Z,98839.66
2023-03-26T17:35:07.594Z,98838.63
2023-03-26T17:40:48.170Z,98844.61
2023-03-26T17:46:02.800Z,98853.37
2023-03-26T17:51:28.110Z,98854.87
2023-03-26T17:56:38.898Z,98854.73
2023-03-26T18:01:48.537Z,98854.35
2023-03-26T18:07:17.367Z,98850.77
2023-03-26T18:12:51.572Z,98849.03
2023-03-26T18:18:10.514Z,98860.54
2023-03-26T18:23:26.375Z,98865.22
2023-03-26T18:28:42.228Z,98862.05
2023-03-26T18:33:50.950Z,98865.15
2023-03-26T18:39:01.421Z,98862.41
2023-03-26T18:44:14.020Z,98855.25
2023-03-26T18:49:21.707Z,98852.02
2023-03-26T18:54:34.966Z,98843.63
2023-03-26T18:59:46.299Z,98840.32
2023-03-26T19:04:54.441Z,98840.83
2023-03-26T19:10:03.039Z,98834.78
2023-03-26T19:15:14.711Z,98826.33
2023-03-26T19:20:22.764Z,98820.10
2023-03-26T19:25:34.325Z,98823.55
2023-03-26T19:30:43.921Z,98816.17
2023-03-26T19:36:03.607Z,98815.65
2023-03-26T19:41:22.689Z,98802.28
2023-03-26T19:46:53.624Z,98806.00
2023-03-26T19:52:12.454Z,98813.73
2023-03-26T19:57:20.049Z,98813.34
2023-03-26T20:02:27.834Z,98818.48
2023-03-26T20:07:36.450Z,98818.39
2023-03-26T20:12:43.602Z,98812.79
2023-03-26T20:17:52.406Z,98805.55
2023-03-26T20:22:59.651Z,98801.23
2023-03-26T20:28:09.128Z,98794.70
2023-03-26T20:33:20.464Z,98789.48
2023-03-26T20:38:39.106Z,98781.64
2023-03-26T20:43:46.692Z,98777.31
2023-03-26T20:48:55.449Z,98771.52
2023-03-26T20:54:03.322Z,98777.20
2023-03-26T20:59:11.711Z,98769.31
2023-03-26T21:04:20.054Z,98761.43
2023-03-26T21:09:34.337Z,98753.27
2023-03-26T21:14:44.085Z,98746.17
2023-03-26T21:19:52.264Z,98743.01
2023-03-26T21:25:11.805Z,98742.38
2023-03-26T21:30:20.129Z,98761.58
2023-03-26T21:35:28.627Z,98770.44
2023-03-26T21:40:42.283Z,98764.98
2023-03-26T21:45:54.153Z,98750.71
2023-03-26T21:51:04.847Z,98745.25
2023-03-26T21:56:24.274Z,98744.73
2023-03-26T22:01:42.743Z,98729.84
2023-03-26T22:06:58.139Z,98733.44
2023-03-26T22:12:05.660Z,98732.79
2023-03-26T22:17:12.644Z,98728.18
2023-03-26T22:22:22.207Z,98735.75
2023-03-26T22:27:29.166Z,98739.27
2023-03-26T22:32:37.683Z,98745.83
2023-03-26T22:37:45.164Z,98741.46
2023-03-26T22:42:53.511Z,98743.70
2023-03-26T22:48:04.616Z,98739.83
2023-03-26T22:53:12.035Z,98746.92
2023-03-26T22:58:19.223Z,98751.77
2023-03-26T23:03:34.781Z,98751.86
2023-03-26T23:08:42.973Z,98754.33
2023-03-26T23:13:50.643Z,98753.88
2023-03-26T23:18:57.668Z,98757.68
2023-03-26T23:24:05.105Z,98752.65
2023-03-26T23:29:13.926Z,98750.86
2023-03-26T23:34:21.725Z,98752.52
2023-03-26T23:39:28.721Z,98752.75
2023-03-26T23:44:39.389Z,98750.57
2023-03-26T23:49:46.614Z,98752.52
2023-03-26T23:54:53.576Z,98760.88
